createdAt,value
2019-06-20T00:01:14.785Z,15.82
2019-06-20T00:03:41.827Z,15.07
2019-06-20T00:06:08.928Z,13.50
2019-06-20T00:08:36.076Z,12.63
2019-06-20T00:11:03.269Z,13.40
2019-06-20T00:13:30.441Z,14.68
2019-06-20T00:15:57.421Z,13.93
2019-06-20T00:18:24.439Z,14.63
2019-06-20T00:20:51.625Z,14.65
2019-06-20T00:23:20.414Z,15.07
2019-06-20T00:25:48.229Z,14.13
2019-06-20T00:28:16.803Z,14.57
2019-06-20T00:30:44.129Z,14.52
2019-06-20T00:33:13.059Z,14.13
2019-06-20T00:35:40.997Z,13.62
2019-06-20T00:38:08.851Z,12.93
2019-06-20T00:40:36.110Z,14.35
2019-06-20T00:43:16.809Z,13.38
2019-06-20T00:45:32.661Z,14.52
2019-06-20T00:47:59.913Z,13.75
2019-06-20T00:50:27.172Z,14.10
2019-06-20T00:52:54.419Z,13.45
2019-06-20T00:55:23.112Z,15.02
2019-06-20T00:57:52.317Z,13.55
2019-06-20T01:00:19.445Z,13.48
2019-06-20T01:02:46.518Z,14.02
2019-06-20T01:05:13.764Z,13.90
2019-06-20T01:07:40.785Z,14.13
2019-06-20T01:10:07.850Z,13.60
2019-06-20T01:12:36.757Z,14.57
2019-06-20T01:15:04.821Z,13.30
2019-06-20T01:17:31.863Z,13.23
2019-06-20T01:19:59.629Z,14.15
2019-06-20T01:22:26.680Z,14.25
2019-06-20T01:24:53.731Z,14.60
2019-06-20T01:27:20.990Z,13.45
2019-06-20T01:29:48.032Z,13.45
2019-06-20T01:32:15.078Z,13.88
2019-06-20T01:34:42.285Z,14.25
2019-06-20T01:37:09.380Z,14.35
2019-06-20T01:39:36.429Z,15.18
2019-06-20T01:42:03.484Z,14.48
2019-06-20T01:44:30.526Z,14.15
2019-06-20T01:46:57.574Z,14.48
2019-06-20T01:49:25.033Z,13.85
2019-06-20T01:51:52.491Z,14.25
2019-06-20T01:54:19.545Z,14.32
2019-06-20T01:56:46.792Z,13.50
2019-06-20T01:59:13.851Z,14.10
2019-06-20T02:01:40.889Z,13.95
2019-06-20T02:04:07.938Z,14.02
2019-06-20T02:06:34.891Z,14.90
2019-06-20T02:09:01.933Z,14.70
2019-06-20T02:11:31.298Z,14.75
2019-06-20T02:14:07.141Z,14.27
2019-06-20T02:16:25.537Z,14.18
2019-06-20T02:18:54.129Z,14.40
2019-06-20T02:21:21.177Z,15.02
2019-06-20T02:23:48.221Z,14.52
2019-06-20T02:26:15.582Z,15.48
2019-06-20T02:28:42.582Z,13.85
2019-06-20T02:31:10.255Z,13.43
2019-06-20T02:33:37.287Z,14.25
2019-06-20T02:36:04.691Z,14.60
2019-06-20T02:38:31.747Z,14.95
2019-06-20T02:40:58.802Z,14.38
2019-06-20T02:43:25.944Z,14.80
2019-06-20T02:45:52.988Z,13.73
2019-06-20T02:48:20.038Z,14.52
2019-06-20T02:50:47.091Z,14.32
2019-06-20T02:53:32.879Z,15.77
2019-06-20T02:55:59.877Z,13.85
2019-06-20T02:58:26.869Z,13.62
2019-06-20T03:00:54.859Z,14.30
2019-06-20T03:03:22.046Z,14.13
2019-06-20T03:05:49.147Z,15.20
2019-06-20T03:08:16.195Z,14.05
2019-06-20T03:10:43.237Z,14.63
2019-06-20T03:13:10.291Z,13.98
2019-06-20T03:15:37.341Z,14.52
2019-06-20T03:18:04.491Z,13.93
2019-06-20T03:20:31.538Z,14.20
2019-06-20T03:22:58.582Z,13.62
2019-06-20T03:25:25.641Z,13.88
2019-06-20T03:27:52.681Z,12.60
2019-06-20T03:30:19.792Z,13.88
2019-06-20T03:32:47.191Z,13.80
2019-06-20T03:35:21.244Z,14.55
2019-06-20T03:38:05.993Z,14.82
2019-06-20T03:40:33.124Z,16.00
2019-06-20T03:43:00.163Z,15.23
2019-06-20T03:45:28.957Z,14.02
2019-06-20T03:47:56.003Z,13.60
2019-06-20T03:50:23.049Z,14.38
2019-06-20T03:52:51.123Z,14.55
2019-06-20T03:55:18.176Z,14.35
2019-06-20T03:57:45.223Z,13.88
2019-06-20T04:00:12.269Z,13.10
2019-06-20T04:02:39.322Z,13.55
2019-06-20T04:05:06.366Z,14.27
2019-06-20T04:07:33.414Z,13.62
2019-06-20T04:10:00.472Z,14.80
2019-06-20T04:12:27.511Z,13.13
2019-06-20T04:14:54.561Z,14.10
2019-06-20T04:17:21.621Z,14.00
2019-06-20T04:19:48.767Z,14.10
2019-06-20T04:22:15.808Z,13.82
2019-06-20T04:24:42.857Z,13.93
2019-06-20T04:27:09.858Z,12.60
2019-06-20T04:29:36.955Z,12.90
2019-06-20T04:32:04.005Z,12.82
2019-06-20T04:34:31.059Z,13.50
2019-06-20T04:36:58.061Z,12.07
2019-06-20T04:39:25.202Z,11.80
2019-06-20T04:41:52.301Z,12.23
2019-06-20T04:44:19.354Z,12.73
2019-06-20T04:46:49.162Z,11.48
2019-06-20T04:49:19.616Z,11.85
2019-06-20T04:51:43.465Z,11.65
2019-06-20T04:54:10.513Z,11.55
2019-06-20T04:56:37.567Z,11.50
2019-06-20T04:59:04.611Z,11.65
2019-06-20T05:01:31.660Z,12.02
2019-06-20T05:04:01.370Z,11.45
2019-06-20T05:06:28.419Z,10.77
2019-06-20T05:08:55.569Z,12.65
2019-06-20T05:11:22.623Z,12.18
2019-06-20T05:13:49.666Z,12.55
2019-06-20T05:16:16.715Z,12.68
2019-06-20T05:18:45.813Z,11.82
2019-06-20T05:21:12.861Z,11.88
2019-06-20T05:23:39.916Z,12.02
2019-06-20T05:26:07.880Z,12.57
2019-06-20T05:28:36.005Z,12.10
2019-06-20T05:31:03.103Z,12.57
2019-06-20T05:33:30.160Z,12.35
2019-06-20T05:35:57.158Z,11.55
2019-06-20T05:38:24.717Z,10.90
2019-06-20T05:40:52.738Z,11.68
2019-06-20T05:43:20.932Z,12.05
2019-06-20T05:45:48.873Z,12.50
2019-06-20T05:48:16.135Z,11.25
2019-06-20T05:50:45.030Z,11.68
2019-06-20T05:53:14.452Z,12.63
2019-06-20T05:55:41.488Z,11.93
2019-06-20T05:58:08.732Z,11.98
2019-06-20T06:00:36.109Z,12.27
2019-06-20T06:03:06.967Z,11.98
2019-06-20T06:05:30.595Z,13.60
2019-06-20T06:07:58.472Z,14.25
2019-06-20T06:10:24.795Z,14.15
2019-06-20T06:12:51.845Z,15.00
2019-06-20T06:15:18.996Z,15.68
2019-06-20T06:17:45.994Z,16.02
2019-06-20T06:20:13.090Z,16.80
2019-06-20T06:22:40.299Z,16.60
2019-06-20T06:25:07.349Z,15.80
2019-06-20T06:27:34.413Z,16.15
2019-06-20T06:30:13.859Z,17.10
2019-06-20T06:32:40.926Z,16.40
2019-06-20T06:35:07.978Z,17.33
2019-06-20T06:37:35.030Z,17.15
2019-06-20T06:40:02.180Z,16.60
2019-06-20T06:42:29.223Z,15.55
2019-06-20T06:44:56.226Z,16.25
2019-06-20T06:47:23.325Z,17.62
2019-06-20T06:49:50.476Z,17.70
2019-06-20T06:52:17.519Z,17.58
2019-06-20T06:54:44.567Z,18.12
2019-06-20T06:57:11.581Z,21.37
2019-06-20T06:59:38.666Z,18.08
2019-06-20T07:02:05.815Z,18.23
2019-06-20T07:04:32.867Z,18.52
2019-06-20T07:07:00.921Z,18.85
2019-06-20T07:09:27.884Z,18.65
2019-06-20T07:11:54.936Z,17.48
2019-06-20T07:14:22.298Z,18.20
2019-06-20T07:16:59.743Z,18.10
2019-06-20T07:19:16.492Z,20.60
2019-06-20T07:21:44.364Z,17.60
2019-06-20T07:24:11.423Z,17.95
2019-06-20T07:26:38.454Z,15.73
2019-06-20T07:29:05.507Z,17.33
2019-06-20T07:31:32.662Z,18.50
2019-06-20T07:33:59.701Z,18.20
2019-06-20T07:36:27.281Z,17.02
2019-06-20T07:38:54.419Z,17.70
2019-06-20T07:41:21.461Z,17.23
2019-06-20T07:43:48.498Z,18.87
2019-06-20T07:46:15.533Z,19.67
2019-06-20T07:48:42.609Z,19.00
2019-06-20T07:51:09.658Z,20.37
2019-06-20T07:53:36.680Z,20.00
2019-06-20T07:56:03.926Z,20.35
2019-06-20T07:58:31.014Z,22.67
2019-06-20T08:00:58.059Z,20.80
2019-06-20T08:03:25.106Z,16.62
2019-06-20T08:05:52.159Z,18.77
2019-06-20T08:08:19.328Z,17.77
2019-06-20T08:10:46.460Z,19.25
2019-06-20T08:13:13.506Z,17.40
2019-06-20T08:15:40.552Z,17.90
2019-06-20T08:18:09.354Z,16.35
2019-06-20T08:20:36.493Z,15.93
2019-06-20T08:23:03.820Z,18.70
2019-06-20T08:25:30.901Z,19.85
2019-06-20T08:27:59.414Z,17.25
2019-06-20T08:30:25.302Z,19.40
2019-06-20T08:32:52.554Z,20.98
2019-06-20T08:35:19.814Z,21.62
2019-06-20T08:37:46.840Z,15.98
2019-06-20T08:40:13.987Z,16.70
2019-06-20T08:42:41.034Z,16.73
2019-06-20T08:45:08.112Z,17.10
2019-06-20T08:47:35.266Z,18.08
2019-06-20T08:50:05.922Z,19.30
2019-06-20T08:52:31.589Z,16.55
2019-06-20T08:54:59.592Z,15.88
2019-06-20T08:57:26.631Z,16.70
2019-06-20T08:59:54.165Z,20.00
2019-06-20T09:02:20.916Z,19.60
2019-06-20T09:04:47.977Z,18.98
2019-06-20T09:07:15.025Z,19.10
2019-06-20T09:09:42.078Z,10.18
2019-06-20T09:12:09.428Z,8.40
2019-06-20T09:14:36.557Z,7.00
2019-06-20T09:17:03.598Z,8.88
2019-06-20T09:19:30.683Z,8.35
2019-06-20T09:22:00.473Z,6.60
2019-06-20T09:24:26.827Z,7.50
2019-06-20T09:26:53.955Z,6.97
2019-06-20T09:29:21.022Z,6.90
2019-06-20T09:31:48.344Z,9.13
2019-06-20T09:34:15.436Z,9.55
2019-06-20T09:36:42.476Z,8.65
2019-06-20T09:39:09.532Z,9.98
2019-06-20T09:41:36.550Z,10.60
2019-06-20T09:44:03.693Z,10.15
2019-06-20T09:46:30.772Z,9.50
2019-06-20T09:48:58.743Z,10.43
2019-06-20T09:51:24.941Z,9.02
2019-06-20T09:53:52.026Z,9.10
2019-06-20T09:56:19.104Z,8.27
2019-06-20T09:58:46.901Z,7.53
2019-06-20T10:01:13.370Z,7.70
2019-06-20T10:03:40.419Z,8.02
2019-06-20T10:06:14.156Z,8.10
2019-06-20T10:08:34.622Z,9.00
2019-06-20T10:11:01.687Z,7.45
2019-06-20T10:13:32.388Z,8.90
2019-06-20T10:15:55.968Z,7.93
2019-06-20T10:18:22.989Z,9.45
2019-06-20T10:20:51.167Z,8.60
2019-06-20T10:23:17.222Z,9.90
2019-06-20T10:25:46.087Z,9.25
2019-06-20T10:28:11.594Z,8.68
2019-06-20T10:30:39.289Z,9.30
2019-06-20T10:33:07.540Z,9.25
2019-06-20T10:35:34.534Z,9.90
2019-06-20T10:38:01.664Z,8.80
2019-06-20T10:40:29.217Z,10.63
2019-06-20T10:42:56.886Z,10.32
2019-06-20T10:45:23.527Z,11.02
2019-06-20T10:47:51.012Z,12.10
2019-06-20T10:50:18.035Z,10.32
2019-06-20T10:52:45.298Z,10.80
2019-06-20T10:55:12.432Z,11.25
2019-06-20T10:57:41.277Z,11.90
2019-06-20T11:00:07.635Z,10.00
2019-06-20T11:02:34.807Z,11.07
2019-06-20T11:05:01.834Z,10.73
2019-06-20T11:07:28.903Z,11.38
2019-06-20T11:09:56.671Z,9.75
2019-06-20T11:12:23.717Z,9.70
2019-06-20T11:14:50.844Z,10.13
2019-06-20T11:17:18.018Z,10.68
2019-06-20T11:19:45.788Z,10.27
2019-06-20T11:22:12.846Z,11.45
2019-06-20T11:24:41.004Z,10.73
2019-06-20T11:27:08.072Z,11.27
2019-06-20T11:29:35.110Z,9.73
2019-06-20T11:32:02.282Z,10.45
2019-06-20T11:34:29.407Z,10.32
2019-06-20T11:36:57.588Z,10.77
2019-06-20T11:39:24.738Z,9.18
2019-06-20T11:41:51.760Z,9.10
2019-06-20T11:44:18.861Z,9.60
2019-06-20T11:46:48.247Z,8.00
2019-06-20T11:49:15.285Z,9.85
2019-06-20T11:51:43.874Z,9.13
2019-06-20T11:54:10.893Z,8.90
2019-06-20T11:56:37.986Z,9.38
2019-06-20T11:59:05.123Z,9.52
2019-06-20T12:01:33.089Z,10.85
2019-06-20T12:03:59.384Z,9.63
2019-06-20T12:06:26.452Z,9.63
2019-06-20T12:08:53.515Z,10.15
2019-06-20T12:11:20.564Z,10.65
2019-06-20T12:13:48.564Z,8.93
2019-06-20T12:16:16.399Z,8.75
2019-06-20T12:18:43.452Z,9.32
2019-06-20T12:21:12.185Z,9.32
2019-06-20T12:23:40.582Z,8.82
2019-06-20T12:26:06.513Z,9.52
2019-06-20T12:28:33.792Z,7.50
2019-06-20T12:31:00.843Z,6.43
2019-06-20T12:33:27.906Z,7.10
2019-06-20T12:35:55.458Z,6.95
2019-06-20T12:38:22.506Z,7.40
2019-06-20T12:40:50.400Z,6.82
2019-06-20T12:43:17.005Z,6.28
2019-06-20T12:45:44.053Z,6.20
2019-06-20T12:48:11.168Z,6.87
2019-06-20T12:50:38.526Z,5.85
2019-06-20T12:53:05.523Z,6.22
2019-06-20T12:55:32.658Z,5.68
2019-06-20T12:58:00.019Z,6.40
2019-06-20T13:00:29.108Z,5.55
2019-06-20T13:02:56.180Z,5.93
2019-06-20T13:05:23.314Z,5.60
2019-06-20T13:07:50.519Z,5.35
2019-06-20T13:10:17.579Z,6.20
2019-06-20T13:12:46.141Z,6.35
2019-06-20T13:15:11.880Z,6.72
2019-06-20T13:17:39.844Z,5.57
2019-06-20T13:20:06.111Z,5.57
2019-06-20T13:22:33.165Z,5.53
2019-06-20T13:25:00.213Z,5.47
2019-06-20T13:27:27.256Z,5.65
2019-06-20T13:29:54.240Z,6.20
2019-06-20T13:32:21.329Z,6.00
2019-06-20T13:34:48.929Z,5.85
2019-06-20T13:37:15.689Z,5.87
2019-06-20T13:39:45.728Z,6.35
2019-06-20T13:42:11.612Z,7.37
2019-06-20T13:44:39.571Z,8.13
2019-06-20T13:47:05.904Z,7.93
2019-06-20T13:49:33.052Z,7.82
2019-06-20T13:52:00.122Z,9.07
2019-06-20T13:54:27.126Z,10.43
2019-06-20T13:56:56.298Z,11.75
2019-06-20T13:59:24.014Z,12.13
2019-06-20T14:02:05.612Z,12.40
2019-06-20T14:04:18.383Z,13.70
2019-06-20T14:06:45.553Z,13.32
2019-06-20T14:09:14.220Z,13.27
2019-06-20T14:11:41.789Z,14.75
2019-06-20T14:14:08.455Z,15.50
2019-06-20T14:16:36.629Z,14.25
2019-06-20T14:19:04.917Z,14.77
2019-06-20T14:21:30.928Z,16.40
2019-06-20T14:23:58.077Z,16.15
2019-06-20T14:26:25.098Z,16.60
2019-06-20T14:28:52.174Z,16.40
2019-06-20T14:31:19.226Z,16.55
2019-06-20T14:33:48.424Z,17.65
2019-06-20T14:36:14.145Z,17.70
2019-06-20T14:38:41.200Z,17.30
2019-06-20T14:41:08.241Z,18.40
2019-06-20T14:43:35.289Z,17.35
2019-06-20T14:46:02.340Z,18.35
2019-06-20T14:48:29.969Z,18.37
2019-06-20T14:50:56.648Z,18.42
2019-06-20T14:53:23.797Z,18.30
2019-06-20T14:55:51.737Z,19.40
2019-06-20T14:58:17.986Z,19.73
2019-06-20T15:00:46.472Z,18.62
2019-06-20T15:03:12.289Z,17.83
2019-06-20T15:05:39.336Z,20.80
2019-06-20T15:08:06.395Z,21.10
2019-06-20T15:10:33.434Z,21.02
2019-06-20T15:13:00.894Z,20.48
2019-06-20T15:15:27.942Z,21.20
2019-06-20T15:17:57.469Z,18.77
2019-06-20T15:20:22.148Z,20.20
2019-06-20T15:22:50.702Z,20.40
2019-06-20T15:25:16.464Z,19.77
2019-06-20T15:27:43.641Z,20.25
2019-06-20T15:30:10.751Z,21.80
2019-06-20T15:32:50.526Z,21.87
2019-06-20T15:35:05.251Z,21.48
2019-06-20T15:37:32.299Z,22.87
2019-06-20T15:39:59.353Z,22.98
2019-06-20T15:42:26.400Z,24.85
2019-06-20T15:44:53.771Z,21.95
2019-06-20T15:47:20.812Z,21.77
2019-06-20T15:49:47.852Z,22.25
2019-06-20T15:52:16.229Z,22.65
2019-06-20T15:54:43.250Z,24.10
2019-06-20T15:57:10.335Z,21.10
2019-06-20T15:59:38.358Z,23.00
2019-06-20T16:02:05.447Z,21.67
2019-06-20T16:04:32.598Z,21.17
2019-06-20T16:06:59.662Z,21.00
2019-06-20T16:09:26.670Z,21.30
2019-06-20T16:11:53.814Z,20.90
2019-06-20T16:14:20.895Z,21.40
2019-06-20T16:16:47.944Z,20.60
2019-06-20T16:19:15.011Z,16.85
2019-06-20T16:21:42.043Z,16.15
2019-06-20T16:24:11.925Z,17.58
2019-06-20T16:26:36.343Z,16.80
2019-06-20T16:29:03.390Z,15.55
2019-06-20T16:31:30.413Z,14.65
2019-06-20T16:33:57.489Z,16.02
2019-06-20T16:36:24.521Z,13.90
2019-06-20T16:38:51.594Z,15.45
2019-06-20T16:41:18.744Z,15.10
2019-06-20T16:43:45.787Z,15.30
2019-06-20T16:46:12.809Z,14.93
2019-06-20T16:48:41.803Z,13.95
2019-06-20T16:51:08.898Z,12.85
2019-06-20T16:53:36.033Z,13.15
2019-06-20T16:56:03.184Z,12.30
2019-06-20T16:58:30.227Z,11.95
2019-06-20T17:00:57.289Z,12.27
2019-06-20T17:03:40.505Z,12.25
2019-06-20T17:05:51.581Z,12.27
2019-06-20T17:08:18.633Z,10.68
2019-06-20T17:10:45.795Z,11.12
2019-06-20T17:13:12.825Z,10.95
2019-06-20T17:15:39.976Z,10.80
2019-06-20T17:18:07.130Z,10.40
2019-06-20T17:20:34.387Z,11.43
2019-06-20T17:23:01.624Z,11.35
2019-06-20T17:25:28.787Z,12.45
2019-06-20T17:27:55.846Z,12.88
2019-06-20T17:30:22.997Z,12.35
2019-06-20T17:32:50.452Z,12.75
2019-06-20T17:35:19.150Z,13.77
2019-06-20T17:37:46.252Z,13.60
2019-06-20T17:40:13.331Z,13.57
2019-06-20T17:42:41.711Z,13.82
2019-06-20T17:45:08.861Z,14.55
2019-06-20T17:47:36.013Z,15.30
2019-06-20T17:50:03.165Z,16.10
2019-06-20T17:55:04.714Z,12.90
2019-06-20T17:57:31.756Z,13.40
2019-06-20T17:59:58.833Z,12.63
2019-06-20T18:02:25.882Z,13.10
2019-06-20T18:04:52.937Z,15.57
2019-06-20T18:07:19.980Z,13.98
2019-06-20T18:09:47.029Z,15.55
2019-06-20T18:12:14.180Z,14.63
2019-06-20T18:14:41.631Z,15.05
2019-06-20T18:17:08.737Z,14.02
2019-06-20T18:19:35.936Z,13.98
2019-06-20T18:22:02.995Z,14.38
2019-06-20T18:24:30.037Z,15.00
2019-06-20T18:26:57.088Z,14.55
2019-06-20T18:29:24.139Z,15.25
2019-06-20T18:31:51.181Z,16.37
2019-06-20T18:34:29.503Z,15.57
2019-06-20T18:36:47.306Z,14.20
2019-06-20T18:39:14.375Z,14.20
2019-06-20T18:41:41.430Z,14.40
2019-06-20T18:44:08.584Z,13.98
2019-06-20T18:46:35.936Z,14.55
2019-06-20T18:49:03.289Z,13.20
2019-06-20T18:51:30.444Z,13.65
2019-06-20T18:53:58.923Z,13.25
2019-06-20T18:56:25.971Z,13.80
2019-06-20T18:58:53.097Z,13.60
2019-06-20T19:01:20.180Z,14.52
2019-06-20T19:03:47.325Z,13.77
2019-06-20T19:06:14.983Z,12.88
2019-06-20T19:08:42.134Z,13.52
2019-06-20T19:11:09.261Z,13.18
2019-06-20T19:13:36.332Z,14.50
2019-06-20T19:16:03.488Z,14.20
2019-06-20T19:18:30.741Z,13.98
2019-06-20T19:20:58.200Z,14.02
2019-06-20T19:23:25.456Z,14.27
2019-06-20T19:25:52.499Z,14.23
2019-06-20T19:28:20.064Z,14.57
2019-06-20T19:30:47.182Z,14.45
2019-06-20T19:33:14.263Z,14.60
2019-06-20T19:35:43.360Z,14.23
2019-06-20T19:38:10.404Z,14.87
2019-06-20T19:40:41.534Z,14.93
2019-06-20T19:43:13.814Z,15.20
2019-06-20T19:45:41.074Z,15.18
2019-06-20T19:48:08.535Z,15.45
2019-06-20T19:50:35.988Z,14.23
2019-06-20T19:53:03.247Z,15.43
2019-06-20T19:55:30.370Z,15.82
2019-06-20T19:57:57.442Z,16.42
2019-06-20T20:00:25.412Z,16.12
2019-06-20T20:02:52.565Z,16.12
2019-06-20T20:05:20.094Z,15.57
2019-06-20T20:07:47.889Z,16.83
2019-06-20T20:10:16.884Z,16.90
2019-06-20T20:12:44.783Z,16.92
2019-06-20T20:15:11.909Z,16.83
2019-06-20T20:17:39.798Z,17.48
2019-06-20T20:20:07.024Z,18.77
2019-06-20T20:22:34.294Z,18.08
2019-06-20T20:25:01.434Z,17.23
2019-06-20T20:27:28.476Z,17.80
2019-06-20T20:29:55.744Z,17.58
2019-06-20T20:32:22.986Z,18.37
2019-06-20T20:34:50.117Z,18.35
2019-06-20T20:37:17.191Z,17.70
2019-06-20T20:39:44.484Z,18.40
2019-06-20T20:42:12.121Z,17.83
2019-06-20T20:44:39.256Z,19.02
2019-06-20T20:47:06.447Z,18.27
2019-06-20T20:49:33.656Z,19.05
2019-06-20T20:52:00.807Z,19.37
2019-06-20T20:54:27.859Z,20.37
2019-06-20T20:56:55.111Z,20.25
2019-06-20T20:59:22.262Z,20.12
2019-06-20T21:01:49.270Z,20.17
2019-06-20T21:04:16.470Z,20.55
2019-06-20T21:06:47.303Z,18.92
2019-06-20T21:09:14.345Z,20.60
2019-06-20T21:11:41.429Z,20.42
2019-06-20T21:14:09.602Z,20.33
2019-06-20T21:16:36.653Z,21.08
2019-06-20T21:19:03.796Z,22.65
2019-06-20T21:21:32.798Z,20.48
2019-06-20T21:23:59.814Z,20.98
2019-06-20T21:26:26.892Z,21.85
2019-06-20T21:28:54.553Z,22.23
2019-06-20T21:31:21.704Z,22.27
2019-06-20T21:33:48.758Z,23.48
2019-06-20T21:36:16.108Z,24.25
2019-06-20T21:38:43.156Z,23.55
2019-06-20T21:41:10.311Z,24.17
2019-06-20T21:43:37.363Z,24.35
2019-06-20T21:46:06.808Z,24.12
2019-06-20T21:48:31.538Z,23.02
2019-06-20T21:50:58.605Z,23.27
2019-06-20T21:53:25.663Z,22.37
2019-06-20T21:55:52.810Z,23.00
2019-06-20T21:58:19.961Z,23.23
2019-06-20T22:00:47.078Z,23.15
2019-06-20T22:03:14.158Z,23.12
2019-06-20T22:05:41.307Z,23.38
2019-06-20T22:08:08.565Z,24.45
2019-06-20T22:10:35.819Z,23.80
2019-06-20T22:13:02.968Z,24.40
2019-06-20T22:15:30.018Z,24.80
2019-06-20T22:17:57.172Z,24.63
2019-06-20T22:20:24.322Z,24.48
2019-06-20T22:22:51.979Z,24.12
2019-06-20T22:25:19.130Z,27.52
2019-06-20T22:27:46.387Z,27.35
2019-06-20T22:30:13.551Z,27.58
2019-06-20T22:32:40.690Z,29.20
2019-06-20T22:35:07.842Z,27.85
2019-06-20T22:37:34.993Z,28.15
2019-06-20T22:40:02.045Z,28.55
2019-06-20T22:42:29.120Z,30.02
2019-06-20T22:44:56.204Z,29.60
2019-06-20T22:47:23.289Z,29.55
2019-06-20T22:49:50.344Z,28.40
2019-06-20T22:52:17.383Z,28.35
2019-06-20T22:54:46.070Z,28.58
2019-06-20T22:57:13.222Z,28.30
2019-06-20T22:59:40.241Z,28.98
2019-06-20T23:02:07.427Z,28.15
2019-06-20T23:04:34.486Z,28.48
2019-06-20T23:07:03.037Z,29.92
2019-06-20T23:09:30.511Z,28.33
2019-06-20T23:11:57.531Z,28.60
2019-06-20T23:14:24.589Z,27.87
2019-06-20T23:16:51.759Z,27.48
2019-06-20T23:19:18.807Z,26.83
2019-06-20T23:21:50.402Z,26.83
2019-06-20T23:24:17.489Z,26.55
2019-06-20T23:26:44.570Z,27.30
2019-06-20T23:29:17.247Z,28.52
2019-06-20T23:31:44.247Z,27.35
2019-06-20T23:34:12.782Z,26.90
2019-06-20T23:36:40.539Z,25.67
2019-06-20T23:39:07.593Z,26.25
2019-06-20T23:41:34.638Z,25.00
2019-06-20T23:44:01.642Z,25.70
2019-06-20T23:46:28.741Z,24.30
2019-06-20T23:48:56.504Z,24.30
2019-06-20T23:51:25.650Z,24.20
2019-06-20T23:53:51.825Z,23.65
2019-06-20T23:56:18.878Z,23.67
2019-06-20T23:58:46.038Z,23.62
